Time;durP1;ratioP1;P1;durP2;ratioP2;P2;SDS_P1;SDS_P2;PMS_P1;PMS_P2;Temp;Humidity;BMP_temperature;BMP_pressure;BME280_temperature;BME280_humidity;BME280_pressure;Samples;Min_cycle;Max_cycle;Signal;HPM_P1;HPM_P2
2023/12/26 00:01:14;;;;;;;3.47;2.00;;;10.80;99.90;;;;;;5091916;28;20225;-58
2023/12/26 00:03:42;;;;;;;2.10;1.90;;;10.90;99.90;;;;;;5083138;28;20230;-58
2023/12/26 00:06:10;;;;;;;2.27;2.07;;;10.90;99.90;;;;;;5088719;28;20285;-58
2023/12/26 00:08:39;;;;;;;3.27;2.10;;;10.90;99.90;;;;;;5092372;28;20359;-57
2023/12/26 00:11:07;;;;;;;2.10;1.90;;;10.90;99.90;;;;;;5090570;28;20187;-57
2023/12/26 00:13:38;;;;;;;3.33;1.90;;;10.90;99.90;;;;;;5093627;28;20250;-57
2023/12/26 00:16:07;;;;;;;2.03;1.90;;;10.90;99.90;;;;;;5092573;28;20309;-58
2023/12/26 00:18:35;;;;;;;3.37;2.20;;;10.80;99.90;;;;;;5088291;28;20219;-58
2023/12/26 00:21:04;;;;;;;2.97;2.03;;;10.80;99.90;;;;;;5084217;28;20223;-59
2023/12/26 00:23:32;;;;;;;2.43;1.90;;;10.80;99.90;;;;;;5091908;28;20590;-58
2023/12/26 00:26:01;;;;;;;2.73;2.50;;;10.80;99.90;;;;;;5079558;28;20547;-58
2023/12/26 00:28:29;;;;;;;2.40;2.30;;;10.70;99.90;;;;;;5091646;28;20230;-58
2023/12/26 00:30:59;;;;;;;2.40;2.30;;;10.70;99.90;;;;;;5083830;28;20310;-57
2023/12/26 00:33:28;;;;;;;3.77;2.37;;;10.70;99.90;;;;;;5077798;27;20215;-58
2023/12/26 00:35:59;;;;;;;3.33;2.50;;;10.60;99.90;;;;;;5088792;28;20219;-58
2023/12/26 00:38:29;;;;;;;2.77;2.40;;;10.60;99.90;;;;;;5091856;28;20227;-58
2023/12/26 00:40:57;;;;;;;2.57;2.37;;;10.50;99.90;;;;;;5089459;28;20184;-56
2023/12/26 00:43:26;;;;;;;2.83;2.60;;;10.50;99.90;;;;;;5091550;28;20200;-57
2023/12/26 00:45:54;;;;;;;3.77;2.30;;;10.50;99.90;;;;;;5080832;28;20238;-58
2023/12/26 00:48:24;;;;;;;5.60;2.30;;;10.50;99.90;;;;;;5091063;28;20231;-58
2023/12/26 00:50:52;;;;;;;4.03;2.50;;;10.50;99.90;;;;;;5088596;28;20260;-58
2023/12/26 00:53:22;;;;;;;3.77;2.40;;;10.50;99.90;;;;;;5092607;27;20276;-58
2023/12/26 00:55:50;;;;;;;3.20;2.80;;;10.40;99.90;;;;;;5087897;28;20663;-58
2023/12/26 00:58:18;;;;;;;4.80;2.40;;;10.40;99.90;;;;;;5092516;28;20222;-57
2023/12/26 01:00:47;;;;;;;3.17;2.33;;;10.40;99.90;;;;;;5092131;28;20219;-58
2023/12/26 01:03:15;;;;;;;5.20;2.70;;;10.40;99.90;;;;;;5089392;28;20231;-59
2023/12/26 01:05:45;;;;;;;5.23;2.73;;;10.40;99.90;;;;;;5091521;28;20273;-58
2023/12/26 01:08:13;;;;;;;2.53;2.33;;;10.40;99.90;;;;;;5085834;28;20535;-58
2023/12/26 01:10:42;;;;;;;2.97;2.47;;;10.40;99.90;;;;;;5089787;28;20183;-58
2023/12/26 01:13:10;;;;;;;3.63;2.73;;;10.40;99.90;;;;;;5090765;28;20223;-58
2023/12/26 01:15:39;;;;;;;4.30;2.70;;;10.40;99.90;;;;;;5083420;27;20219;-58
2023/12/26 01:18:08;;;;;;;3.50;2.50;;;10.40;99.90;;;;;;5088878;28;20217;-58
2023/12/26 01:20:37;;;;;;;2.73;2.53;;;10.40;99.90;;;;;;5091093;28;21251;-57
2023/12/26 01:23:06;;;;;;;9.43;2.70;;;10.40;99.90;;;;;;5084448;28;20202;-58
2023/12/26 01:25:35;;;;;;;3.80;2.33;;;10.40;99.90;;;;;;4961120;28;20204;-58
2023/12/26 01:28:04;;;;;;;6.20;2.60;;;10.30;99.90;;;;;;4982084;28;20222;-58
2023/12/26 01:30:33;;;;;;;6.33;3.10;;;10.30;99.90;;;;;;5052928;28;20251;-58
2023/12/26 01:33:01;;;;;;;7.40;2.57;;;10.40;99.90;;;;;;5079064;28;20265;-58
2023/12/26 01:35:30;;;;;;;4.80;2.40;;;10.30;99.90;;;;;;5084054;28;20223;-58
2023/12/26 01:37:58;;;;;;;3.40;2.57;;;10.30;99.90;;;;;;5091181;28;20215;-57
2023/12/26 01:40:27;;;;;;;5.90;2.73;;;10.30;99.90;;;;;;5092566;28;20199;-57
2023/12/26 01:42:56;;;;;;;6.20;2.93;;;10.40;99.90;;;;;;5083706;28;20261;-59
2023/12/26 01:45:25;;;;;;;2.40;2.20;;;10.40;99.90;;;;;;5086950;28;20211;-57
2023/12/26 01:47:57;;;;;;;3.97;2.60;;;10.40;99.90;;;;;;5085881;28;20219;-58
2023/12/26 01:50:26;;;;;;;4.90;2.60;;;10.30;99.90;;;;;;5085544;28;20600;-58
2023/12/26 01:52:55;;;;;;;5.17;2.53;;;10.40;99.90;;;;;;5090858;28;20607;-58
2023/12/26 01:55:24;;;;;;;8.93;2.80;;;10.30;99.90;;;;;;5083893;28;20218;-58
2023/12/26 01:57:56;;;;;;;3.10;2.40;;;10.30;99.90;;;;;;5081982;28;20305;-57
2023/12/26 02:00:24;;;;;;;5.10;2.30;;;10.30;99.90;;;;;;5089910;28;20226;-58
2023/12/26 02:02:54;;;;;;;4.97;2.33;;;10.30;99.90;;;;;;5079060;28;20223;-58
2023/12/26 02:05:44;;;;;;;5.70;2.30;;;10.30;99.90;;;;;;5085333;28;20227;-57
2023/12/26 02:08:13;;;;;;;2.17;2.10;;;10.30;99.90;;;;;;5087490;28;20237;-57
2023/12/26 02:10:46;;;;;;;3.50;2.20;;;10.30;99.90;;;;;;5088424;28;20282;-58
2023/12/26 02:13:16;;;;;;;3.30;2.10;;;10.30;99.90;;;;;;5085581;28;20237;-57
2023/12/26 02:15:45;;;;;;;2.53;2.33;;;10.30;99.90;;;;;;5088150;28;20230;-57
2023/12/26 02:18:14;;;;;;;3.90;2.30;;;10.30;99.90;;;;;;5088302;28;20220;-57
2023/12/26 02:20:43;;;;;;;2.37;2.13;;;10.30;99.90;;;;;;5086211;27;20220;-57
2023/12/26 02:23:11;;;;;;;3.70;2.20;;;10.30;99.90;;;;;;5085209;28;20192;-57
2023/12/26 02:25:41;;;;;;;3.70;2.07;;;10.30;99.90;;;;;;5087227;28;20194;-58
2023/12/26 02:28:09;;;;;;;3.20;2.17;;;10.30;99.90;;;;;;5095369;28;20550;-57
2023/12/26 02:30:39;;;;;;;5.70;2.40;;;10.30;99.90;;;;;;5088926;28;20318;-58
2023/12/26 02:33:08;;;;;;;4.50;2.00;;;10.30;99.90;;;;;;5089236;28;20219;-57
2023/12/26 02:35:37;;;;;;;4.00;2.13;;;10.30;99.90;;;;;;5089276;28;20292;-58
2023/12/26 02:38:06;;;;;;;6.77;2.17;;;10.30;99.90;;;;;;5090002;28;20218;-57
2023/12/26 02:40:34;;;;;;;5.40;2.27;;;10.30;99.90;;;;;;5094471;28;20291;-57
2023/12/26 02:43:04;;;;;;;4.70;2.10;;;10.30;99.90;;;;;;5094143;28;20306;-57
2023/12/26 02:45:32;;;;;;;4.07;2.40;;;10.30;99.90;;;;;;5085557;28;20219;-58
2023/12/26 02:48:01;;;;;;;5.50;2.40;;;10.30;99.90;;;;;;5088546;28;20241;-57
2023/12/26 02:50:32;;;;;;;4.20;2.13;;;10.30;99.90;;;;;;5094111;28;20219;-57
2023/12/26 02:53:01;;;;;;;4.97;2.10;;;10.30;99.90;;;;;;5089201;28;20199;-58
2023/12/26 02:55:29;;;;;;;5.03;3.07;;;10.30;99.90;;;;;;5095036;28;20656;-58
2023/12/26 02:57:57;;;;;;;3.07;2.33;;;10.30;99.90;;;;;;5089441;28;20246;-57
2023/12/26 03:00:28;;;;;;;4.17;2.40;;;10.30;99.90;;;;;;5098063;28;20302;-57
2023/12/26 03:02:56;;;;;;;3.60;2.30;;;10.30;99.90;;;;;;5092949;28;20245;-57
2023/12/26 03:05:25;;;;;;;4.67;2.33;;;10.40;99.90;;;;;;5092341;28;20222;-57
2023/12/26 03:07:53;;;;;;;4.83;2.50;;;10.40;99.90;;;;;;5093937;28;20203;-57
2023/12/26 03:10:21;;;;;;;5.80;2.50;;;10.40;99.90;;;;;;5095185;28;20580;-57
2023/12/26 03:12:49;;;;;;;6.80;2.40;;;10.40;99.90;;;;;;5090119;28;20681;-58
2023/12/26 03:15:18;;;;;;;7.57;2.37;;;10.40;99.90;;;;;;5094488;28;20223;-57
2023/12/26 03:17:47;;;;;;;4.07;2.20;;;10.40;99.90;;;;;;5094377;28;20254;-58
2023/12/26 03:20:16;;;;;;;5.97;2.50;;;10.40;99.90;;;;;;5093514;28;20196;-57
2023/12/26 03:22:44;;;;;;;5.27;2.20;;;10.40;99.90;;;;;;5091260;28;20630;-58
2023/12/26 03:25:12;;;;;;;7.13;2.20;;;10.40;99.90;;;;;;5088746;28;20217;-57
2023/12/26 03:27:41;;;;;;;3.57;2.03;;;10.40;99.90;;;;;;5094001;28;22049;-57
2023/12/26 03:30:10;;;;;;;8.10;2.20;;;10.40;99.90;;;;;;5093045;28;20272;-58
2023/12/26 03:32:38;;;;;;;5.47;2.00;;;10.40;99.90;;;;;;5087767;28;20341;-57
2023/12/26 03:35:10;;;;;;;7.33;2.63;;;10.40;99.90;;;;;;5088634;28;20207;-58
2023/12/26 03:37:38;;;;;;;7.97;2.30;;;10.40;99.90;;;;;;5092169;28;20218;-58
2023/12/26 03:40:08;;;;;;;2.60;2.20;;;10.40;99.90;;;;;;5093421;28;20362;-58
2023/12/26 03:42:36;;;;;;;2.67;2.00;;;10.50;99.90;;;;;;5090250;28;20567;-58
2023/12/26 03:45:04;;;;;;;3.80;2.30;;;10.40;99.90;;;;;;5089763;28;20299;-57
2023/12/26 03:47:33;;;;;;;5.77;2.07;;;10.40;99.90;;;;;;5085327;28;20739;-58
2023/12/26 03:50:03;;;;;;;2.27;2.07;;;10.40;99.90;;;;;;5080575;28;20201;-57
2023/12/26 03:52:32;;;;;;;6.37;2.30;;;10.40;99.90;;;;;;5094114;28;20257;-57
2023/12/26 03:55:01;;;;;;;5.67;2.17;;;10.40;99.90;;;;;;5089190;28;20226;-57
2023/12/26 03:57:30;;;;;;;5.70;2.10;;;10.40;99.90;;;;;;5082439;28;20246;-57
2023/12/26 03:59:58;;;;;;;5.03;2.13;;;10.50;99.90;;;;;;5088589;28;20215;-57
2023/12/26 04:02:27;;;;;;;3.27;2.10;;;10.50;99.90;;;;;;5093371;28;20235;-57
2023/12/26 04:04:55;;;;;;;7.53;2.60;;;10.50;99.90;;;;;;5092059;28;20187;-57
2023/12/26 04:07:23;;;;;;;5.47;2.40;;;10.50;99.90;;;;;;5092635;28;20769;-58
2023/12/26 04:09:53;;;;;;;4.07;2.27;;;10.50;99.90;;;;;;5092958;28;20227;-58
2023/12/26 04:12:21;;;;;;;7.17;2.60;;;10.50;99.90;;;;;;5093231;27;20223;-58
2023/12/26 04:14:50;;;;;;;8.43;2.47;;;10.50;99.90;;;;;;5090707;28;20314;-57
2023/12/26 04:17:19;;;;;;;8.00;2.93;;;10.50;99.90;;;;;;5085739;28;20227;-57
2023/12/26 04:19:48;;;;;;;5.67;2.50;;;10.50;99.90;;;;;;5090199;28;20199;-58
2023/12/26 04:22:16;;;;;;;7.30;2.70;;;10.50;99.90;;;;;;5083464;28;20234;-58
2023/12/26 04:24:44;;;;;;;6.90;2.63;;;10.50;99.90;;;;;;5089319;28;20208;-57
2023/12/26 04:27:14;;;;;;;11.07;2.90;;;10.50;99.90;;;;;;5088187;28;20323;-58
2023/12/26 04:29:42;;;;;;;11.10;2.70;;;10.50;99.90;;;;;;5086013;28;20247;-57
2023/12/26 04:32:11;;;;;;;14.97;3.40;;;10.50;99.90;;;;;;5087443;27;20237;-58
2023/12/26 04:34:39;;;;;;;13.40;2.97;;;10.50;99.90;;;;;;5089185;28;20198;-58
2023/12/26 04:37:08;;;;;;;12.70;3.20;;;10.50;99.90;;;;;;5082596;28;20230;-58
2023/12/26 04:39:36;;;;;;;7.67;2.77;;;10.50;99.90;;;;;;5093175;28;20629;-58
2023/12/26 04:42:05;;;;;;;8.57;2.90;;;10.50;99.90;;;;;;5090801;28;20227;-58
2023/12/26 04:44:35;;;;;;;12.93;3.20;;;10.50;99.90;;;;;;5092317;28;20306;-58
2023/12/26 04:47:03;;;;;;;9.57;2.90;;;10.50;99.90;;;;;;5084104;28;20188;-58
2023/12/26 04:49:31;;;;;;;9.17;2.77;;;10.50;99.90;;;;;;5086100;28;20195;-57
2023/12/26 04:52:00;;;;;;;11.20;2.80;;;10.50;99.90;;;;;;5092220;28;20222;-58
2023/12/26 04:54:28;;;;;;;15.33;3.10;;;10.50;99.90;;;;;;5088684;28;20219;-58
2023/12/26 04:56:56;;;;;;;9.20;3.13;;;10.50;99.90;;;;;;5087648;28;20227;-58
2023/12/26 04:59:25;;;;;;;8.97;2.93;;;10.50;99.90;;;;;;5090499;28;20582;-58
2023/12/26 05:01:54;;;;;;;6.73;2.50;;;10.50;99.90;;;;;;5086746;28;20684;-57
2023/12/26 05:04:23;;;;;;;11.00;3.10;;;10.50;99.90;;;;;;5090171;28;20242;-58
2023/12/26 05:06:51;;;;;;;16.00;2.77;;;10.40;99.90;;;;;;5083763;28;20241;-57
2023/12/26 05:09:19;;;;;;;7.17;2.70;;;10.40;99.90;;;;;;5084812;28;20223;-57
2023/12/26 05:11:48;;;;;;;12.00;3.00;;;10.40;99.90;;;;;;5082949;28;20260;-58
2023/12/26 05:14:17;;;;;;;11.67;2.70;;;10.40;99.90;;;;;;5082141;28;20206;-59
2023/12/26 05:16:48;;;;;;;12.90;3.30;;;10.40;99.90;;;;;;5087739;28;20268;-57
2023/12/26 05:19:18;;;;;;;11.37;3.50;;;10.40;99.90;;;;;;5086875;28;20306;-58
2023/12/26 05:21:47;;;;;;;13.33;2.93;;;10.50;99.90;;;;;;5089419;28;20219;-57
2023/12/26 05:24:15;;;;;;;11.80;3.43;;;10.40;99.90;;;;;;5087748;28;20841;-58
2023/12/26 05:26:44;;;;;;;7.27;2.83;;;10.50;99.90;;;;;;5081012;28;20223;-58
2023/12/26 05:29:13;;;;;;;13.70;3.03;;;10.40;99.90;;;;;;5087751;28;20646;-58
2023/12/26 05:31:42;;;;;;;10.77;2.73;;;10.40;99.90;;;;;;5086614;28;20595;-58
2023/12/26 05:34:10;;;;;;;20.07;3.23;;;10.40;99.90;;;;;;5079822;28;20246;-58
2023/12/26 05:36:40;;;;;;;12.77;2.87;;;10.40;99.90;;;;;;5087755;28;20245;-58
2023/12/26 05:39:08;;;;;;;10.20;3.07;;;10.40;99.90;;;;;;5086083;28;20582;-58
2023/12/26 05:41:37;;;;;;;9.03;2.37;;;10.40;99.90;;;;;;5090399;28;20230;-58
2023/12/26 05:44:05;;;;;;;15.57;2.90;;;10.40;99.90;;;;;;5086029;27;20262;-57
2023/12/26 05:46:34;;;;;;;7.10;2.60;;;10.40;99.90;;;;;;5089225;28;20194;-58
2023/12/26 05:49:02;;;;;;;9.13;2.80;;;10.40;99.90;;;;;;5087804;28;20215;-58
2023/12/26 05:51:30;;;;;;;10.13;2.60;;;10.40;99.90;;;;;;5087793;28;20223;-58
2023/12/26 05:54:00;;;;;;;12.53;2.60;;;10.40;99.90;;;;;;5083007;28;20669;-58
2023/12/26 05:56:31;;;;;;;12.57;2.80;;;10.40;99.90;;;;;;5082660;28;20716;-58
2023/12/26 05:59:37;;;;;;;12.60;2.90;;;10.40;99.90;;;;;;5086143;28;20632;-57
2023/12/26 06:02:06;;;;;;;7.73;2.77;;;10.40;99.90;;;;;;5094478;28;20199;-58
2023/12/26 06:04:34;;;;;;;9.03;2.60;;;10.30;99.90;;;;;;5094641;28;20246;-59
2023/12/26 06:07:02;;;;;;;15.50;5.07;;;10.30;99.90;;;;;;5094819;28;20211;-57
2023/12/26 06:09:32;;;;;;;12.57;3.03;;;10.30;99.90;;;;;;5090831;28;20219;-58
2023/12/26 06:12:00;;;;;;;14.63;3.23;;;10.30;99.90;;;;;;5088388;28;20226;-58
2023/12/26 06:14:28;;;;;;;13.57;3.53;;;10.20;99.90;;;;;;5090083;28;20298;-57
2023/12/26 06:16:57;;;;;;;10.77;3.00;;;10.30;99.90;;;;;;5092224;28;20215;-58
2023/12/26 06:19:25;;;;;;;11.83;2.80;;;10.30;99.90;;;;;;5092089;28;20219;-58
2023/12/26 06:21:54;;;;;;;9.43;2.33;;;10.30;99.90;;;;;;5090678;28;20215;-58
2023/12/26 06:24:22;;;;;;;12.93;3.53;;;10.30;99.90;;;;;;5087307;28;20215;-59
2023/12/26 06:26:51;;;;;;;11.57;3.07;;;10.30;99.90;;;;;;5091869;28;20219;-58
2023/12/26 06:29:20;;;;;;;14.50;3.83;;;10.30;99.90;;;;;;5088458;28;20310;-58
2023/12/26 06:31:48;;;;;;;11.43;2.97;;;10.30;99.90;;;;;;5090585;28;20266;-58
2023/12/26 06:34:35;;;;;;;13.03;3.40;;;10.30;99.90;;;;;;5091921;28;20223;-58
2023/12/26 06:37:04;;;;;;;11.63;3.97;;;10.30;99.90;;;;;;5085805;28;20215;-58
2023/12/26 06:39:32;;;;;;;13.03;3.37;;;10.20;99.90;;;;;;5087379;28;20220;-58
2023/12/26 06:42:02;;;;;;;6.63;2.40;;;10.20;99.90;;;;;;5092731;28;20305;-58
2023/12/26 06:44:31;;;;;;;5.83;2.30;;;10.10;99.90;;;;;;5091882;28;20265;-58
2023/12/26 06:46:59;;;;;;;9.33;2.40;;;9.90;99.90;;;;;;5090604;28;20191;-58
2023/12/26 06:49:27;;;;;;;12.80;2.40;;;9.80;99.90;;;;;;5090856;28;20209;-58
2023/12/26 06:51:56;;;;;;;5.83;2.20;;;9.80;99.90;;;;;;5089386;28;20219;-57
2023/12/26 06:54:24;;;;;;;7.87;2.70;;;9.70;99.90;;;;;;5089078;28;20223;-58
2023/12/26 06:56:53;;;;;;;8.07;2.03;;;9.70;99.90;;;;;;5085612;28;20215;-58
2023/12/26 06:59:22;;;;;;;7.63;2.20;;;9.60;99.90;;;;;;5095876;28;20896;-58
2023/12/26 07:01:51;;;;;;;12.67;2.90;;;9.50;99.90;;;;;;5086265;28;20195;-58
2023/12/26 07:04:19;;;;;;;9.43;2.97;;;9.50;99.90;;;;;;5089420;28;20231;-58
2023/12/26 07:06:47;;;;;;;4.67;1.97;;;9.40;99.90;;;;;;5093337;28;20211;-58
2023/12/26 07:09:16;;;;;;;6.83;2.00;;;9.40;99.90;;;;;;5094131;28;20753;-58
2023/12/26 07:11:44;;;;;;;6.13;2.07;;;9.30;99.90;;;;;;5086660;28;20793;-58
2023/12/26 07:14:12;;;;;;;5.43;1.60;;;9.30;99.90;;;;;;5084554;27;20286;-59
2023/12/26 07:16:42;;;;;;;11.07;2.40;;;9.30;99.90;;;;;;5090260;28;20208;-58
2023/12/26 07:19:10;;;;;;;8.67;2.00;;;9.30;99.90;;;;;;5091753;28;20703;-58
2023/12/26 07:21:39;;;;;;;6.93;2.47;;;9.30;99.90;;;;;;5093114;28;20219;-58
2023/12/26 07:24:08;;;;;;;10.17;2.37;;;9.20;99.90;;;;;;5093685;28;20231;-59
2023/12/26 07:26:36;;;;;;;9.53;2.40;;;9.20;99.90;;;;;;5092079;28;20211;-57
2023/12/26 07:29:04;;;;;;;7.43;2.20;;;9.10;99.90;;;;;;5082773;28;20197;-58
2023/12/26 07:31:33;;;;;;;7.93;1.97;;;9.00;99.90;;;;;;5089407;28;20202;-59
2023/12/26 07:34:08;;;;;;;5.37;2.03;;;9.00;99.90;;;;;;5093282;28;20265;-58
2023/12/26 07:36:37;;;;;;;12.60;2.30;;;8.90;99.90;;;;;;5091547;28;20218;-58
2023/12/26 07:39:06;;;;;;;8.17;2.23;;;8.90;99.90;;;;;;5091021;28;20215;-58
2023/12/26 07:41:34;;;;;;;16.03;2.40;;;8.90;99.90;;;;;;5090816;28;20654;-59
2023/12/26 07:44:02;;;;;;;7.70;2.40;;;8.80;99.90;;;;;;5085453;28;20523;-59
2023/12/26 07:46:30;;;;;;;12.97;2.60;;;8.80;99.90;;;;;;5086595;28;20192;-59
2023/12/26 07:48:59;;;;;;;8.33;2.00;;;8.80;99.90;;;;;;5083537;28;20278;-58
2023/12/26 07:51:29;;;;;;;9.93;2.10;;;8.80;99.90;;;;;;5087996;28;20215;-58
2023/12/26 07:53:59;;;;;;;7.80;2.40;;;8.70;99.90;;;;;;5092916;28;20585;-57
2023/12/26 07:56:28;;;;;;;10.20;2.20;;;8.70;99.90;;;;;;5090204;28;20275;-58
2023/12/26 07:58:56;;;;;;;9.73;2.40;;;8.70;99.90;;;;;;5092632;28;20274;-58
2023/12/26 08:01:26;;;;;;;8.27;2.00;;;8.60;99.90;;;;;;5081686;28;20220;-58
2023/12/26 08:03:55;;;;;;;6.27;2.17;;;8.60;99.90;;;;;;5089202;28;20227;-58
2023/12/26 08:06:24;;;;;;;11.17;2.30;;;8.60;99.90;;;;;;5089365;28;20219;-58
2023/12/26 08:08:54;;;;;;;8.23;2.10;;;8.60;99.90;;;;;;5085411;28;20293;-58
2023/12/26 08:11:24;;;;;;;12.43;2.97;;;8.50;99.90;;;;;;5093122;28;20220;-58
2023/12/26 08:13:53;;;;;;;7.50;2.20;;;8.50;99.90;;;;;;5088954;28;20191;-59
2023/12/26 08:16:21;;;;;;;8.93;2.07;;;8.50;99.90;;;;;;5082895;28;20227;-58
2023/12/26 08:18:50;;;;;;;10.37;2.97;;;8.50;99.90;;;;;;5092616;28;20223;-58
2023/12/26 08:21:18;;;;;;;13.07;2.40;;;8.50;99.90;;;;;;5090328;28;20222;-58
2023/12/26 08:23:46;;;;;;;7.57;2.20;;;8.50;99.90;;;;;;5087885;28;20220;-58
2023/12/26 08:26:16;;;;;;;9.27;2.50;;;8.50;99.90;;;;;;5082743;28;20598;-58
2023/12/26 08:28:45;;;;;;;11.00;2.40;;;8.50;99.90;;;;;;5092334;28;20187;-59
2023/12/26 08:31:14;;;;;;;13.03;3.03;;;8.50;99.90;;;;;;5084499;28;20228;-58
2023/12/26 08:33:43;;;;;;;5.60;2.43;;;8.50;99.90;;;;;;5091928;28;20226;-58
2023/12/26 08:36:12;;;;;;;11.60;2.40;;;8.60;99.90;;;;;;5087492;28;20219;-57
2023/12/26 08:38:41;;;;;;;10.37;2.93;;;8.70;99.90;;;;;;5087934;28;20219;-58
2023/12/26 08:41:12;;;;;;;10.50;2.50;;;8.60;99.90;;;;;;5088600;28;20211;-58
2023/12/26 08:43:41;;;;;;;11.30;2.50;;;8.60;99.90;;;;;;5080040;28;20249;-57
2023/12/26 08:46:10;;;;;;;14.20;2.40;;;8.70;99.90;;;;;;5084532;28;20219;-57
2023/12/26 08:48:38;;;;;;;4.97;2.33;;;8.70;99.90;;;;;;5087742;28;20309;-58
2023/12/26 08:51:06;;;;;;;13.93;2.57;;;8.70;99.90;;;;;;5087792;28;20310;-58
2023/12/26 08:53:35;;;;;;;7.00;2.40;;;8.70;99.90;;;;;;5086963;28;20306;-58
2023/12/26 08:56:04;;;;;;;8.00;2.23;;;8.70;99.90;;;;;;5090168;28;20199;-59
2023/12/26 08:58:32;;;;;;;7.27;2.20;;;8.70;99.90;;;;;;5085742;28;20203;-57
2023/12/26 09:01:02;;;;;;;8.83;2.40;;;8.70;99.90;;;;;;5091493;28;20229;-58
2023/12/26 09:03:31;;;;;;;12.20;2.33;;;8.70;99.90;;;;;;5088146;28;20242;-59
2023/12/26 09:05:59;;;;;;;12.43;2.70;;;8.80;99.90;;;;;;5089588;28;20219;-58
2023/12/26 09:08:28;;;;;;;11.10;2.70;;;8.80;99.90;;;;;;5087586;28;20260;-58
2023/12/26 09:10:56;;;;;;;11.17;2.47;;;8.90;99.90;;;;;;5085530;28;20195;-58
2023/12/26 09:13:26;;;;;;;10.90;2.60;;;9.00;99.90;;;;;;5089472;28;20221;-59
2023/12/26 09:15:54;;;;;;;10.07;2.40;;;9.10;99.90;;;;;;5086390;28;20550;-58
2023/12/26 09:18:24;;;;;;;10.80;2.53;;;9.10;99.90;;;;;;5088948;28;20219;-58
2023/12/26 09:20:53;;;;;;;9.97;2.13;;;9.20;99.90;;;;;;5090116;28;20306;-58
2023/12/26 09:23:21;;;;;;;9.13;2.87;;;9.30;99.90;;;;;;5081776;28;20384;-59
2023/12/26 09:25:50;;;;;;;13.37;2.53;;;9.40;99.90;;;;;;5085581;28;20672;-58
2023/12/26 09:28:18;;;;;;;11.10;2.70;;;9.40;99.90;;;;;;5087848;28;20219;-59
2023/12/26 09:30:46;;;;;;;10.43;2.60;;;9.50;99.90;;;;;;5088418;28;20241;-59
2023/12/26 09:33:15;;;;;;;11.57;2.57;;;9.60;99.90;;;;;;5087173;28;20215;-59
2023/12/26 09:35:44;;;;;;;10.00;2.43;;;9.80;99.90;;;;;;5084067;28;20741;-58
2023/12/26 09:38:13;;;;;;;9.30;2.20;;;9.90;99.90;;;;;;5082802;28;20673;-58
2023/12/26 09:40:42;;;;;;;13.03;3.03;;;10.00;99.90;;;;;;5085504;28;20260;-58
2023/12/26 09:43:11;;;;;;;17.93;2.80;;;10.00;99.90;;;;;;5085738;28;20222;-58
2023/12/26 09:45:39;;;;;;;8.70;2.73;;;10.10;99.90;;;;;;5089139;28;20219;-57
2023/12/26 09:48:08;;;;;;;11.00;2.70;;;10.00;99.90;;;;;;5082999;28;20223;-58
2023/12/26 09:50:36;;;;;;;12.90;3.20;;;10.00;99.90;;;;;;5086910;28;20231;-58
2023/12/26 09:53:09;;;;;;;10.10;2.60;;;9.90;99.90;;;;;;5086196;28;20519;-58
2023/12/26 09:55:37;;;;;;;13.87;3.03;;;9.90;99.90;;;;;;5084204;28;20286;-58
2023/12/26 09:58:06;;;;;;;14.13;3.00;;;9.90;99.90;;;;;;5080445;28;20230;-58
2023/12/26 10:00:36;;;;;;;11.57;3.33;;;9.80;99.90;;;;;;5087427;28;20229;-58
2023/12/26 10:03:05;;;;;;;12.20;2.80;;;9.80;99.90;;;;;;5085313;28;20223;-58
2023/12/26 10:05:34;;;;;;;14.07;3.47;;;9.70;99.90;;;;;;5085046;28;20225;-58
2023/12/26 10:08:02;;;;;;;11.80;2.90;;;9.60;99.90;;;;;;5088177;27;20546;-57
2023/12/26 10:10:33;;;;;;;18.77;3.23;;;9.60;99.90;;;;;;5084493;28;20297;-58
2023/12/26 10:13:01;;;;;;;14.03;3.30;;;9.50;99.90;;;;;;5086747;28;20597;-58
2023/12/26 10:15:29;;;;;;;15.40;3.87;;;9.50;99.90;;;;;;5088802;28;20227;-58
2023/12/26 10:17:58;;;;;;;16.43;3.20;;;9.50;99.90;;;;;;5083649;27;20223;-58
2023/12/26 10:20:26;;;;;;;15.97;3.30;;;9.50;99.90;;;;;;5084297;28;20237;-57
2023/12/26 10:23:32;;;;;;;13.33;3.30;;;9.50;99.90;;;;;;5089962;28;20571;-58
2023/12/26 10:26:02;;;;;;;8.77;2.90;;;9.50;99.90;;;;;;5088480;28;20215;-59
2023/12/26 10:28:33;;;;;;;9.70;2.53;;;9.50;99.90;;;;;;5091484;28;20193;-58
2023/12/26 10:31:11;;;;;;;12.37;2.77;;;9.50;99.90;;;;;;5088755;28;20677;-58
2023/12/26 10:33:40;;;;;;;10.03;2.80;;;9.40;99.90;;;;;;5075123;28;20223;-59
2023/12/26 10:36:10;;;;;;;11.57;2.87;;;9.40;99.90;;;;;;5086783;28;20261;-58
2023/12/26 10:38:39;;;;;;;12.97;3.50;;;9.40;99.90;;;;;;5082921;28;20219;-58
2023/12/26 10:41:18;;;;;;;10.20;3.03;;;9.40;99.90;;;;;;5078585;28;20229;-58
2023/12/26 10:43:49;;;;;;;11.27;3.00;;;9.40;99.90;;;;;;5082634;28;20187;-59
2023/12/26 10:46:19;;;;;;;12.93;3.67;;;9.40;99.90;;;;;;5089461;28;20261;-59
2023/12/26 10:48:49;;;;;;;12.17;3.87;;;9.40;99.90;;;;;;5086928;28;20216;-59
2023/12/26 10:51:22;;;;;;;16.63;3.10;;;9.50;99.90;;;;;;5085985;28;20220;-58
2023/12/26 10:53:58;;;;;;;10.37;2.87;;;9.70;99.90;;;;;;5093557;28;20226;-58
2023/12/26 10:56:32;;;;;;;8.53;2.60;;;9.90;99.90;;;;;;5090349;28;20222;-59
2023/12/26 10:59:02;;;;;;;10.93;2.63;;;10.30;99.90;;;;;;5090837;28;20214;-59
2023/12/26 13:51:56;;;;;;;11.23;2.90;;;10.20;99.90;;;;;;5080776;28;20226;-58
2023/12/26 13:55:01;;;;;;;14.33;3.03;;;10.20;99.90;;;;;;5085691;28;20328;-58
2023/12/26 13:58:07;;;;;;;11.00;3.00;;;10.30;99.90;;;;;;5084790;27;20215;-58
2023/12/26 14:00:35;;;;;;;19.23;3.67;;;10.30;99.90;;;;;;5086520;28;20226;-58
2023/12/26 14:03:04;;;;;;;11.37;2.93;;;10.30;99.90;;;;;;5087330;28;20252;-58
2023/12/26 14:06:09;;;;;;;11.27;3.20;;;10.30;99.90;;;;;;5085218;28;20237;-58
2023/12/26 14:09:15;;;;;;;13.93;2.90;;;10.30;99.90;;;;;;5084018;28;20223;-58
2023/12/26 14:11:44;;;;;;;11.93;2.83;;;10.30;99.90;;;;;;5086296;28;20230;-58
2023/12/26 14:14:13;;;;;;;16.40;2.97;;;10.30;99.90;;;;;;5077583;28;20527;-58
2023/12/26 14:16:41;;;;;;;13.00;2.80;;;10.30;99.90;;;;;;5084169;28;20219;-58
2023/12/26 14:19:46;;;;;;;11.47;3.40;;;10.30;99.90;;;;;;5091537;28;20872;-58
2023/12/26 14:22:52;;;;;;;13.33;3.60;;;10.20;99.90;;;;;;5086718;28;20215;-58
2023/12/26 14:25:21;;;;;;;15.43;3.20;;;10.20;99.90;;;;;;5086097;28;20215;-58
2023/12/26 14:27:50;;;;;;;11.73;2.83;;;10.10;99.90;;;;;;5085826;28;20246;-58
2023/12/26 14:30:18;;;;;;;9.70;2.73;;;10.10;99.90;;;;;;5086948;28;20215;-58
2023/12/26 14:33:24;;;;;;;5.97;2.70;;;10.10;99.90;;;;;;5085008;28;20232;-58
2023/12/26 14:36:30;;;;;;;13.67;3.43;;;10.00;99.90;;;;;;5089193;28;20215;-59
2023/12/26 14:38:58;;;;;;;17.00;3.00;;;10.00;99.90;;;;;;5082721;28;20228;-58
2023/12/26 14:41:45;;;;;;;17.70;3.57;;;10.00;99.90;;;;;;5085748;28;20224;-59
2023/12/26 14:44:51;;;;;;;11.63;3.40;;;9.90;99.90;;;;;;5083040;28;20188;-58
2023/12/26 14:47:56;;;;;;;16.03;3.17;;;9.90;99.90;;;;;;5086984;28;20621;-59
2023/12/26 14:50:26;;;;;;;12.23;2.70;;;9.90;99.90;;;;;;5079282;28;20228;-58
2023/12/26 14:52:54;;;;;;;9.70;2.70;;;9.90;99.90;;;;;;5083623;28;20199;-58
2023/12/26 14:55:22;;;;;;;9.93;2.90;;;9.80;99.90;;;;;;5094039;28;20215;-58
2023/12/26 14:58:27;;;;;;;14.67;3.30;;;9.80;99.90;;;;;;5086365;27;20571;-58
2023/12/26 15:01:33;;;;;;;13.37;3.47;;;9.80;99.90;;;;;;5084486;28;20337;-59
2023/12/26 15:04:01;;;;;;;11.37;3.87;;;9.70;99.90;;;;;;5091413;28;20239;-58
2023/12/26 15:06:31;;;;;;;22.30;3.87;;;9.70;99.90;;;;;;5086031;28;20278;-58
2023/12/26 15:09:00;;;;;;;16.17;3.20;;;9.60;99.90;;;;;;5093540;28;20234;-58
2023/12/26 15:11:29;;;;;;;12.53;3.60;;;9.60;99.90;;;;;;5086382;28;20319;-59
2023/12/26 15:13:57;;;;;;;9.63;3.37;;;9.60;99.90;;;;;;5097941;28;20195;-58
2023/12/26 15:16:45;;;;;;;12.70;3.70;;;9.50;99.90;;;;;;5090250;28;20258;-59
2023/12/26 15:19:14;;;;;;;19.23;3.90;;;9.40;99.90;;;;;;5086033;28;20310;-58
2023/12/26 15:21:45;;;;;;;13.33;3.37;;;9.30;99.90;;;;;;5090082;28;20231;-59
2023/12/26 15:24:14;;;;;;;11.10;3.27;;;9.30;99.90;;;;;;5086429;28;20230;-58
2023/12/26 15:26:43;;;;;;;9.93;2.77;;;9.20;99.90;;;;;;5083484;28;20224;-59
2023/12/26 15:29:11;;;;;;;8.23;3.60;;;9.10;99.90;;;;;;5086088;28;20188;-58
2023/12/26 15:31:40;;;;;;;11.90;2.80;;;9.00;99.90;;;;;;5086885;28;20199;-58
2023/12/26 15:34:08;;;;;;;14.43;2.80;;;8.90;99.90;;;;;;5091852;28;20604;-59
2023/12/26 15:36:37;;;;;;;14.97;2.73;;;8.80;99.90;;;;;;5084303;28;20250;-59
2023/12/26 15:39:06;;;;;;;12.67;3.17;;;8.70;99.90;;;;;;5082720;28;20215;-58
2023/12/26 15:41:35;;;;;;;14.97;3.30;;;8.60;99.90;;;;;;5082880;28;20235;-58
2023/12/26 15:44:05;;;;;;;17.17;3.70;;;8.60;99.90;;;;;;5089399;28;20203;-58
2023/12/26 15:46:33;;;;;;;14.60;3.50;;;8.50;99.90;;;;;;5088093;28;20307;-58
2023/12/26 15:49:02;;;;;;;13.93;3.47;;;8.40;99.90;;;;;;5088338;28;20231;-58
2023/12/26 15:51:30;;;;;;;16.37;3.90;;;8.40;99.90;;;;;;5083845;28;20220;-59
2023/12/26 15:53:58;;;;;;;13.90;3.63;;;8.30;99.90;;;;;;5085916;28;20215;-58